sensor_id;sensor_type;location;lat;lon;timestamp;pressure;altitude;pressure_sealevel;temperature;humidity
40872;BME280;26591;43.264;26.940;2022-12-29T00:02:19;100114.38;;;4.29;69.82
40872;BME280;26591;43.264;26.940;2022-12-29T00:04:45;100120.06;;;4.08;69.86
40872;BME280;26591;43.264;26.940;2022-12-29T00:07:10;100118.78;;;3.87;70.54
40872;BME280;26591;43.264;26.940;2022-12-29T00:09:36;100111.03;;;3.85;70.78
40872;BME280;26591;43.264;26.940;2022-12-29T00:12:03;100108.47;;;3.98;70.94
40872;BME280;26591;43.264;26.940;2022-12-29T00:14:29;100106.22;;;4.06;71.11
40872;BME280;26591;43.264;26.940;2022-12-29T00:17:13;100113.00;;;3.96;70.74
40872;BME280;26591;43.264;26.940;2022-12-29T00:19:39;100105.47;;;4.04;70.92
40872;BME280;26591;43.264;26.940;2022-12-29T00:22:26;100106.00;;;3.67;71.44
40872;BME280;26591;43.264;26.940;2022-12-29T00:25:20;100107.19;;;3.91;71.64
40872;BME280;26591;43.264;26.940;2022-12-29T00:28:09;100112.31;;;3.92;71.21
40872;BME280;26591;43.264;26.940;2022-12-29T00:31:11;100112.06;;;3.97;71.02
40872;BME280;26591;43.264;26.940;2022-12-29T00:33:59;100105.25;;;3.80;71.95
40872;BME280;26591;43.264;26.940;2022-12-29T00:36:46;100103.38;;;3.82;71.37
40872;BME280;26591;43.264;26.940;2022-12-29T00:39:17;100102.06;;;3.89;71.74
40872;BME280;26591;43.264;26.940;2022-12-29T00:42:11;100104.19;;;3.82;72.02
40872;BME280;26591;43.264;26.940;2022-12-29T00:44:56;100102.34;;;3.85;71.82
40872;BME280;26591;43.264;26.940;2022-12-29T00:47:22;100099.34;;;3.91;71.91
40872;BME280;26591;43.264;26.940;2022-12-29T00:49:48;100099.34;;;3.91;71.60
40872;BME280;26591;43.264;26.940;2022-12-29T00:52:14;100083.97;;;3.99;71.65
40872;BME280;26591;43.264;26.940;2022-12-29T00:54:41;100088.56;;;3.95;71.16
40872;BME280;26591;43.264;26.940;2022-12-29T00:57:10;100087.88;;;4.06;71.15
40872;BME280;26591;43.264;26.940;2022-12-29T00:59:38;100084.41;;;3.78;70.85
40872;BME280;26591;43.264;26.940;2022-12-29T01:02:05;100082.25;;;3.85;71.28
40872;BME280;26591;43.264;26.940;2022-12-29T01:04:31;100081.06;;;4.04;70.80
40872;BME280;26591;43.264;26.940;2022-12-29T01:06:57;100073.66;;;4.10;70.60
40872;BME280;26591;43.264;26.940;2022-12-29T01:09:23;100077.22;;;4.09;70.94
40872;BME280;26591;43.264;26.940;2022-12-29T01:12:08;100072.91;;;4.08;70.90
40872;BME280;26591;43.264;26.940;2022-12-29T01:14:34;100073.22;;;4.04;71.05
40872;BME280;26591;43.264;26.940;2022-12-29T01:17:00;100061.09;;;4.16;70.71
40872;BME280;26591;43.264;26.940;2022-12-29T01:19:26;100047.78;;;4.19;71.15
40872;BME280;26591;43.264;26.940;2022-12-29T01:21:51;100045.03;;;4.07;70.79
40872;BME280;26591;43.264;26.940;2022-12-29T01:24:19;100041.47;;;4.08;70.89
40872;BME280;26591;43.264;26.940;2022-12-29T01:26:45;100046.00;;;4.19;70.46
40872;BME280;26591;43.264;26.940;2022-12-29T01:29:11;100044.56;;;4.28;70.87
40872;BME280;26591;43.264;26.940;2022-12-29T01:31:37;100044.34;;;4.31;70.66
40872;BME280;26591;43.264;26.940;2022-12-29T01:34:03;100038.50;;;4.27;70.19
40872;BME280;26591;43.264;26.940;2022-12-29T01:36:29;100030.28;;;4.19;70.24
40872;BME280;26591;43.264;26.940;2022-12-29T01:38:55;100020.59;;;4.07;70.37
40872;BME280;26591;43.264;26.940;2022-12-29T01:41:21;100014.91;;;4.00;71.18
40872;BME280;26591;43.264;26.940;2022-12-29T01:43:58;100012.34;;;4.13;70.92
40872;BME280;26591;43.264;26.940;2022-12-29T01:46:43;100009.97;;;4.23;70.91
40872;BME280;26591;43.264;26.940;2022-12-29T01:49:16;100008.09;;;4.25;71.28
40872;BME280;26591;43.264;26.940;2022-12-29T01:51:44;100017.72;;;4.11;71.01
40872;BME280;26591;43.264;26.940;2022-12-29T01:54:22;100007.31;;;4.10;71.25
40872;BME280;26591;43.264;26.940;2022-12-29T01:56:52;100005.59;;;3.96;71.55
40872;BME280;26591;43.264;26.940;2022-12-29T01:59:22;99995.34;;;4.06;71.32
40872;BME280;26591;43.264;26.940;2022-12-29T02:01:50;100016.31;;;4.06;71.52
40872;BME280;26591;43.264;26.940;2022-12-29T02:04:16;100023.78;;;3.85;72.15
40872;BME280;26591;43.264;26.940;2022-12-29T02:06:53;100024.56;;;3.72;72.80
40872;BME280;26591;43.264;26.940;2022-12-29T02:09:21;100017.31;;;3.63;72.67
40872;BME280;26591;43.264;26.940;2022-12-29T02:11:47;100019.31;;;3.72;72.70
40872;BME280;26591;43.264;26.940;2022-12-29T02:14:13;100006.91;;;3.61;72.88
40872;BME280;26591;43.264;26.940;2022-12-29T02:32:56;99995.09;;;3.41;73.80
40872;BME280;26591;43.264;26.940;2022-12-29T02:35:49;99997.25;;;3.34;73.31
40872;BME280;26591;43.264;26.940;2022-12-29T02:40:53;100002.03;;;2.99;73.98
40872;BME280;26591;43.264;26.940;2022-12-29T02:43:23;99991.13;;;2.92;74.27
40872;BME280;26591;43.264;26.940;2022-12-29T02:45:55;99988.03;;;3.14;73.88
40872;BME280;26591;43.264;26.940;2022-12-29T02:48:52;99990.66;;;3.00;73.89
40872;BME280;26591;43.264;26.940;2022-12-29T02:51:38;99983.00;;;2.82;74.01
40872;BME280;26591;43.264;26.940;2022-12-29T02:54:05;99990.28;;;2.77;74.57
40872;BME280;26591;43.264;26.940;2022-12-29T02:56:50;99988.97;;;2.99;74.00
40872;BME280;26591;43.264;26.940;2022-12-29T02:59:16;99990.28;;;3.06;73.95
40872;BME280;26591;43.264;26.940;2022-12-29T03:08:38;99989.16;;;2.96;74.32
40872;BME280;26591;43.264;26.940;2022-12-29T03:11:13;99990.47;;;3.17;73.69
40872;BME280;26591;43.264;26.940;2022-12-29T03:14:21;99989.13;;;3.10;74.29
40872;BME280;26591;43.264;26.940;2022-12-29T03:17:19;99987.38;;;3.11;74.35
40872;BME280;26591;43.264;26.940;2022-12-29T03:19:51;99989.81;;;3.14;74.63
40872;BME280;26591;43.264;26.940;2022-12-29T03:22:21;99994.28;;;3.26;75.05
40872;BME280;26591;43.264;26.940;2022-12-29T03:24:55;99992.16;;;3.46;74.24
40872;BME280;26591;43.264;26.940;2022-12-29T03:28:08;99988.81;;;3.58;74.20
40872;BME280;26591;43.264;26.940;2022-12-29T03:30:13;99982.84;;;3.69;73.56
40872;BME280;26591;43.264;26.940;2022-12-29T03:32:46;99982.53;;;3.61;73.06
40872;BME280;26591;43.264;26.940;2022-12-29T03:35:16;99986.56;;;3.52;73.37
40872;BME280;26591;43.264;26.940;2022-12-29T03:37:52;99985.94;;;3.34;73.43
40872;BME280;26591;43.264;26.940;2022-12-29T03:40:23;99992.28;;;3.44;74.01
40872;BME280;26591;43.264;26.940;2022-12-29T03:42:50;99998.09;;;3.35;74.64
40872;BME280;26591;43.264;26.940;2022-12-29T03:45:16;99999.31;;;3.44;73.96
40872;BME280;26591;43.264;26.940;2022-12-29T03:47:41;99984.47;;;3.30;74.22
40872;BME280;26591;43.264;26.940;2022-12-29T03:50:07;99983.50;;;3.45;74.36
40872;BME280;26591;43.264;26.940;2022-12-29T03:52:34;99982.56;;;3.46;73.94
40872;BME280;26591;43.264;26.940;2022-12-29T03:54:59;99984.28;;;3.60;74.02
40872;BME280;26591;43.264;26.940;2022-12-29T03:57:25;99984.09;;;3.36;74.18
40872;BME280;26591;43.264;26.940;2022-12-29T03:59:50;99985.78;;;3.37;73.72
40872;BME280;26591;43.264;26.940;2022-12-29T04:02:16;99987.94;;;3.16;75.02
40872;BME280;26591;43.264;26.940;2022-12-29T04:04:41;99985.34;;;3.01;75.31
40872;BME280;26591;43.264;26.940;2022-12-29T04:07:07;99993.66;;;3.08;75.62
40872;BME280;26591;43.264;26.940;2022-12-29T04:09:32;99989.41;;;3.20;75.31
40872;BME280;26591;43.264;26.940;2022-12-29T04:11:58;99987.00;;;3.02;75.46
40872;BME280;26591;43.264;26.940;2022-12-29T04:14:23;99991.97;;;3.07;75.59
40872;BME280;26591;43.264;26.940;2022-12-29T04:16:49;99991.75;;;3.10;76.14
40872;BME280;26591;43.264;26.940;2022-12-29T04:19:14;99994.00;;;3.16;75.02
40872;BME280;26591;43.264;26.940;2022-12-29T04:21:40;99994.94;;;3.15;75.59
40872;BME280;26591;43.264;26.940;2022-12-29T04:24:06;99992.50;;;3.27;75.10
40872;BME280;26591;43.264;26.940;2022-12-29T04:26:32;99994.75;;;3.33;74.97
40872;BME280;26591;43.264;26.940;2022-12-29T04:28:58;99996.94;;;3.39;75.00
40872;BME280;26591;43.264;26.940;2022-12-29T04:31:23;99998.75;;;3.24;75.14
40872;BME280;26591;43.264;26.940;2022-12-29T04:33:49;100003.31;;;3.49;74.83
40872;BME280;26591;43.264;26.940;2022-12-29T04:36:15;100003.59;;;3.45;74.35
40872;BME280;26591;43.264;26.940;2022-12-29T04:38:40;99999.75;;;3.50;74.81
40872;BME280;26591;43.264;26.940;2022-12-29T04:41:06;100003.56;;;3.59;73.81
40872;BME280;26591;43.264;26.940;2022-12-29T04:43:31;99996.72;;;3.57;74.01
40872;BME280;26591;43.264;26.940;2022-12-29T04:45:57;100000.63;;;3.36;73.86
40872;BME280;26591;43.264;26.940;2022-12-29T04:48:23;100004.63;;;3.28;74.78
40872;BME280;26591;43.264;26.940;2022-12-29T04:50:49;100006.16;;;3.17;74.10
40872;BME280;26591;43.264;26.940;2022-12-29T04:53:16;100012.91;;;3.07;74.94
40872;BME280;26591;43.264;26.940;2022-12-29T04:55:42;100003.72;;;3.14;75.12
40872;BME280;26591;43.264;26.940;2022-12-29T04:58:08;100004.19;;;3.21;75.21
40872;BME280;26591;43.264;26.940;2022-12-29T05:00:33;100008.56;;;3.35;75.36
40872;BME280;26591;43.264;26.940;2022-12-29T05:02:59;100009.69;;;3.31;74.80
40872;BME280;26591;43.264;26.940;2022-12-29T05:05:25;100014.91;;;3.45;75.25
40872;BME280;26591;43.264;26.940;2022-12-29T05:07:50;100018.44;;;3.86;76.02
40872;BME280;26591;43.264;26.940;2022-12-29T05:10:16;100017.34;;;3.76;75.04
40872;BME280;26591;43.264;26.940;2022-12-29T05:12:42;100017.25;;;3.35;74.35
40872;BME280;26591;43.264;26.940;2022-12-29T05:15:09;100022.50;;;3.21;74.82
40872;BME280;26591;43.264;26.940;2022-12-29T05:17:35;100016.25;;;3.38;74.72
40872;BME280;26591;43.264;26.940;2022-12-29T05:20:01;100016.78;;;3.43;74.35
40872;BME280;26591;43.264;26.940;2022-12-29T05:22:27;100021.25;;;3.41;74.25
40872;BME280;26591;43.264;26.940;2022-12-29T05:24:52;100023.81;;;3.70;76.78
40872;BME280;26591;43.264;26.940;2022-12-29T05:27:18;100026.78;;;3.78;76.14
40872;BME280;26591;43.264;26.940;2022-12-29T05:29:43;100019.34;;;3.58;74.62
40872;BME280;26591;43.264;26.940;2022-12-29T05:32:09;100017.44;;;3.32;74.60
40872;BME280;26591;43.264;26.940;2022-12-29T05:34:34;100013.31;;;3.43;74.64
40872;BME280;26591;43.264;26.940;2022-12-29T05:37:00;100008.13;;;3.56;74.88
40872;BME280;26591;43.264;26.940;2022-12-29T05:39:28;100006.53;;;3.67;74.07
40872;BME280;26591;43.264;26.940;2022-12-29T05:41:54;100011.31;;;3.61;73.51
40872;BME280;26591;43.264;26.940;2022-12-29T05:44:19;100013.41;;;3.41;74.21
40872;BME280;26591;43.264;26.940;2022-12-29T05:46:45;100011.53;;;3.43;74.11
40872;BME280;26591;43.264;26.940;2022-12-29T05:49:11;100016.41;;;3.35;74.63
40872;BME280;26591;43.264;26.940;2022-12-29T05:51:36;100005.91;;;3.64;74.46
40872;BME280;26591;43.264;26.940;2022-12-29T05:54:02;100011.53;;;3.85;74.30
40872;BME280;26591;43.264;26.940;2022-12-29T05:56:31;100017.53;;;4.00;73.86
40872;BME280;26591;43.264;26.940;2022-12-29T05:58:57;100013.72;;;4.19;73.21
40872;BME280;26591;43.264;26.940;2022-12-29T06:01:22;100023.31;;;4.46;73.62
40872;BME280;26591;43.264;26.940;2022-12-29T06:03:48;100022.81;;;4.79;73.10
40872;BME280;26591;43.264;26.940;2022-12-29T06:06:14;100016.19;;;5.25;73.39
40872;BME280;26591;43.264;26.940;2022-12-29T06:08:39;100017.81;;;5.52;73.42
40872;BME280;26591;43.264;26.940;2022-12-29T06:11:05;100019.97;;;5.95;72.83
40872;BME280;26591;43.264;26.940;2022-12-29T06:13:31;100011.63;;;6.26;71.83
40872;BME280;26591;43.264;26.940;2022-12-29T06:15:57;100021.25;;;6.50;70.67
40872;BME280;26591;43.264;26.940;2022-12-29T06:18:22;100018.19;;;6.67;67.65
40872;BME280;26591;43.264;26.940;2022-12-29T06:20:48;100012.22;;;6.77;66.78
40872;BME280;26591;43.264;26.940;2022-12-29T06:23:13;100016.22;;;7.16;65.41
40872;BME280;26591;43.264;26.940;2022-12-29T06:25:39;100023.84;;;7.42;65.32
40872;BME280;26591;43.264;26.940;2022-12-29T06:28:05;100021.53;;;7.72;64.03
40872;BME280;26591;43.264;26.940;2022-12-29T06:30:31;100027.44;;;7.97;62.77
40872;BME280;26591;43.264;26.940;2022-12-29T06:32:58;100025.31;;;8.23;62.46
40872;BME280;26591;43.264;26.940;2022-12-29T06:35:23;100036.38;;;8.38;62.51
40872;BME280;26591;43.264;26.940;2022-12-29T06:37:49;100027.47;;;8.72;61.10
40872;BME280;26591;43.264;26.940;2022-12-29T06:40:15;100025.72;;;9.03;60.26
40872;BME280;26591;43.264;26.940;2022-12-29T06:42:40;100037.09;;;9.35;59.36
40872;BME280;26591;43.264;26.940;2022-12-29T06:45:06;100031.09;;;9.73;58.41
40872;BME280;26591;43.264;26.940;2022-12-29T06:47:33;100029.41;;;9.72;58.16
40872;BME280;26591;43.264;26.940;2022-12-29T06:49:59;100036.25;;;9.85;56.93
40872;BME280;26591;43.264;26.940;2022-12-29T06:52:24;100028.84;;;9.78;56.82
40872;BME280;26591;43.264;26.940;2022-12-29T06:54:50;100030.56;;;9.99;56.34
40872;BME280;26591;43.264;26.940;2022-12-29T06:57:16;100030.56;;;10.29;56.15
40872;BME280;26591;43.264;26.940;2022-12-29T06:59:41;100034.75;;;10.31;55.27
40872;BME280;26591;43.264;26.940;2022-12-29T07:02:11;100039.59;;;10.36;55.43
40872;BME280;26591;43.264;26.940;2022-12-29T07:04:36;100036.66;;;10.68;54.77
40872;BME280;26591;43.264;26.940;2022-12-29T07:07:02;100037.53;;;10.69;54.23
40872;BME280;26591;43.264;26.940;2022-12-29T07:09:28;100050.69;;;10.89;53.92
40872;BME280;26591;43.264;26.940;2022-12-29T07:11:54;100057.09;;;10.96;53.10
40872;BME280;26591;43.264;26.940;2022-12-29T07:14:19;100047.03;;;11.09;53.35
40872;BME280;26591;43.264;26.940;2022-12-29T07:16:46;100058.47;;;11.10;52.15
40872;BME280;26591;43.264;26.940;2022-12-29T07:19:15;100050.16;;;11.33;52.24
40872;BME280;26591;43.264;26.940;2022-12-29T07:21:41;100054.31;;;11.35;52.24
40872;BME280;26591;43.264;26.940;2022-12-29T07:24:07;100055.97;;;11.36;52.43
40872;BME280;26591;43.264;26.940;2022-12-29T07:26:32;100051.97;;;11.32;52.32
40872;BME280;26591;43.264;26.940;2022-12-29T07:29:00;100052.88;;;11.13;51.42
40872;BME280;26591;43.264;26.940;2022-12-29T07:31:26;100054.47;;;10.96;52.34
40872;BME280;26591;43.264;26.940;2022-12-29T07:33:51;100053.47;;;10.97;51.68
40872;BME280;26591;43.264;26.940;2022-12-29T07:36:17;100057.22;;;11.04;51.74
40872;BME280;26591;43.264;26.940;2022-12-29T07:38:43;100054.41;;;11.16;51.75
40872;BME280;26591;43.264;26.940;2022-12-29T07:41:08;100056.38;;;11.13;51.43
40872;BME280;26591;43.264;26.940;2022-12-29T07:43:34;100044.44;;;11.27;51.45
40872;BME280;26591;43.264;26.940;2022-12-29T07:46:00;100056.66;;;11.10;51.65
40872;BME280;26591;43.264;26.940;2022-12-29T07:48:25;100053.31;;;10.98;51.57
40872;BME280;26591;43.264;26.940;2022-12-29T07:50:52;100052.31;;;11.09;51.63
40872;BME280;26591;43.264;26.940;2022-12-29T07:53:18;100055.19;;;11.26;51.24
40872;BME280;26591;43.264;26.940;2022-12-29T07:55:44;100058.25;;;11.31;50.95
40872;BME280;26591;43.264;26.940;2022-12-29T07:58:09;100052.06;;;11.40;51.07
40872;BME280;26591;43.264;26.940;2022-12-29T08:00:35;100059.81;;;11.24;51.86
40872;BME280;26591;43.264;26.940;2022-12-29T08:03:01;100044.28;;;11.39;51.42
40872;BME280;26591;43.264;26.940;2022-12-29T08:05:26;100045.53;;;11.63;51.06
40872;BME280;26591;43.264;26.940;2022-12-29T08:07:52;100051.63;;;11.73;50.47
40872;BME280;26591;43.264;26.940;2022-12-29T08:10:18;100048.97;;;11.73;50.71
40872;BME280;26591;43.264;26.940;2022-12-29T08:12:44;100054.50;;;11.80;50.56
40872;BME280;26591;43.264;26.940;2022-12-29T08:15:11;100043.81;;;11.99;49.93
40872;BME280;26591;43.264;26.940;2022-12-29T08:17:37;100050.09;;;11.98;50.33
40872;BME280;26591;43.264;26.940;2022-12-29T08:20:03;100055.19;;;12.10;50.45
40872;BME280;26591;43.264;26.940;2022-12-29T08:22:30;100058.25;;;11.87;50.56
40872;BME280;26591;43.264;26.940;2022-12-29T08:24:55;100054.41;;;11.53;51.90
40872;BME280;26591;43.264;26.940;2022-12-29T08:27:21;100064.06;;;11.07;52.79
40872;BME280;26591;43.264;26.940;2022-12-29T08:29:47;100060.97;;;11.11;53.09
40872;BME280;26591;43.264;26.940;2022-12-29T08:32:12;100055.00;;;10.99;52.92
40872;BME280;26591;43.264;26.940;2022-12-29T08:34:38;100047.53;;;11.23;52.70
40872;BME280;26591;43.264;26.940;2022-12-29T08:37:04;100044.75;;;11.24;52.24
40872;BME280;26591;43.264;26.940;2022-12-29T08:39:29;100041.38;;;11.32;52.22
40872;BME280;26591;43.264;26.940;2022-12-29T08:41:55;100035.63;;;11.37;51.83
40872;BME280;26591;43.264;26.940;2022-12-29T08:44:21;100027.84;;;11.25;52.55
40872;BME280;26591;43.264;26.940;2022-12-29T08:46:46;100032.72;;;11.30;52.06
40872;BME280;26591;43.264;26.940;2022-12-29T08:49:12;100035.50;;;11.28;52.00
40872;BME280;26591;43.264;26.940;2022-12-29T08:51:38;100038.53;;;11.43;51.92
40872;BME280;26591;43.264;26.940;2022-12-29T08:54:03;100034.34;;;11.41;51.78
40872;BME280;26591;43.264;26.940;2022-12-29T08:56:29;100030.47;;;11.35;52.10
40872;BME280;26591;43.264;26.940;2022-12-29T08:58:54;100026.47;;;11.31;52.12
40872;BME280;26591;43.264;26.940;2022-12-29T09:01:20;100022.81;;;11.32;52.00
40872;BME280;26591;43.264;26.940;2022-12-29T09:03:46;100019.84;;;11.35;52.18
40872;BME280;26591;43.264;26.940;2022-12-29T09:06:12;100022.34;;;11.47;52.06
40872;BME280;26591;43.264;26.940;2022-12-29T09:08:38;100020.19;;;11.32;54.03
40872;BME280;26591;43.264;26.940;2022-12-29T09:11:14;100021.03;;;11.23;52.97
40872;BME280;26591;43.264;26.940;2022-12-29T09:13:40;100017.38;;;11.34;52.40
40872;BME280;26591;43.264;26.940;2022-12-29T09:16:06;100017.44;;;10.66;53.78
40872;BME280;26591;43.264;26.940;2022-12-29T09:18:32;100009.97;;;10.42;54.17
40872;BME280;26591;43.264;26.940;2022-12-29T09:21:00;100003.66;;;10.63;53.76
40872;BME280;26591;43.264;26.940;2022-12-29T09:23:26;100002.00;;;11.09;53.62
40872;BME280;26591;43.264;26.940;2022-12-29T09:25:52;100000.09;;;11.29;52.96
40872;BME280;26591;43.264;26.940;2022-12-29T09:28:18;99997.16;;;11.33;52.98
40872;BME280;26591;43.264;26.940;2022-12-29T09:30:44;99991.63;;;11.44;52.32
40872;BME280;26591;43.264;26.940;2022-12-29T09:33:09;99994.13;;;11.73;51.77
40872;BME280;26591;43.264;26.940;2022-12-29T09:35:35;99982.59;;;11.83;51.48
40872;BME280;26591;43.264;26.940;2022-12-29T09:38:00;99985.81;;;12.04;51.60
40872;BME280;26591;43.264;26.940;2022-12-29T09:40:29;99980.88;;;12.10;51.36
40872;BME280;26591;43.264;26.940;2022-12-29T09:45:41;99980.75;;;12.11;50.51
40872;BME280;26591;43.264;26.940;2022-12-29T09:48:16;99976.72;;;11.89;51.40
40872;BME280;26591;43.264;26.940;2022-12-29T09:50:48;99963.97;;;12.11;51.07
40872;BME280;26591;43.264;26.940;2022-12-29T09:53:27;99968.13;;;11.95;51.51
40872;BME280;26591;43.264;26.940;2022-12-29T09:55:56;99965.47;;;11.77;51.85
40872;BME280;26591;43.264;26.940;2022-12-29T09:58:39;99961.09;;;11.40;52.38
40872;BME280;26591;43.264;26.940;2022-12-29T10:01:17;99969.75;;;11.42;51.87
40872;BME280;26591;43.264;26.940;2022-12-29T10:03:49;99962.78;;;11.41;53.04
40872;BME280;26591;43.264;26.940;2022-12-29T10:06:23;99957.06;;;11.64;52.65
40872;BME280;26591;43.264;26.940;2022-12-29T10:14:02;99951.72;;;10.90;53.40
40872;BME280;26591;43.264;26.940;2022-12-29T10:16:40;99952.81;;;11.53;52.64
40872;BME280;26591;43.264;26.940;2022-12-29T10:24:16;99947.28;;;11.64;52.53
40872;BME280;26591;43.264;26.940;2022-12-29T10:26:45;99944.25;;;11.77;52.11
40872;BME280;26591;43.264;26.940;2022-12-29T10:29:20;99939.41;;;11.72;52.78
40872;BME280;26591;43.264;26.940;2022-12-29T10:34:34;99924.44;;;10.89;54.46
40872;BME280;26591;43.264;26.940;2022-12-29T10:39:45;99929.91;;;11.34;54.42
40872;BME280;26591;43.264;26.940;2022-12-29T10:42:52;99931.47;;;11.72;53.52
40872;BME280;26591;43.264;26.940;2022-12-29T10:45:15;99930.16;;;11.95;52.68
40872;BME280;26591;43.264;26.940;2022-12-29T10:47:54;99928.22;;;12.41;51.65
40872;BME280;26591;43.264;26.940;2022-12-29T10:50:22;99923.91;;;12.40;51.94
40872;BME280;26591;43.264;26.940;2022-12-29T10:52:48;99926.47;;;12.58;51.42
40872;BME280;26591;43.264;26.940;2022-12-29T10:55:22;99929.72;;;12.70;50.98
40872;BME280;26591;43.264;26.940;2022-12-29T10:57:54;99924.53;;;12.69;51.08
40872;BME280;26591;43.264;26.940;2022-12-29T11:00:22;99916.25;;;12.72;51.04
40872;BME280;26591;43.264;26.940;2022-12-29T11:08:14;99916.06;;;12.39;51.67
40872;BME280;26591;43.264;26.940;2022-12-29T11:10:42;99909.66;;;12.49;51.65
40872;BME280;26591;43.264;26.940;2022-12-29T11:13:24;99910.09;;;12.10;51.56
40872;BME280;26591;43.264;26.940;2022-12-29T11:15:51;99903.84;;;12.46;51.57
40872;BME280;26591;43.264;26.940;2022-12-29T11:20:47;99899.91;;;12.24;51.99
40872;BME280;26591;43.264;26.940;2022-12-29T11:23:32;99903.94;;;12.36;51.90
40872;BME280;26591;43.264;26.940;2022-12-29T11:28:41;99907.66;;;12.17;51.76
40872;BME280;26591;43.264;26.940;2022-12-29T11:31:08;99909.25;;;12.62;50.71
40872;BME280;26591;43.264;26.940;2022-12-29T11:33:36;99904.97;;;12.43;50.65
40872;BME280;26591;43.264;26.940;2022-12-29T11:36:13;99903.50;;;12.75;50.77
40872;BME280;26591;43.264;26.940;2022-12-29T11:38:42;99891.50;;;11.92;51.82
40872;BME280;26591;43.264;26.940;2022-12-29T11:41:12;99897.59;;;12.55;50.92
40872;BME280;26591;43.264;26.940;2022-12-29T11:43:41;99896.78;;;12.63;51.15
40872;BME280;26591;43.264;26.940;2022-12-29T11:46:16;99896.78;;;12.63;51.44
40872;BME280;26591;43.264;26.940;2022-12-29T11:48:42;99891.38;;;12.81;50.69
40872;BME280;26591;43.264;26.940;2022-12-29T11:51:09;99890.34;;;13.08;49.84
40872;BME280;26591;43.264;26.940;2022-12-29T11:53:45;99895.53;;;13.18;49.27
40872;BME280;26591;43.264;26.940;2022-12-29T11:56:19;99892.88;;;13.26;48.82
40872;BME280;26591;43.264;26.940;2022-12-29T11:58:49;99885.19;;;13.07;49.66
40872;BME280;26591;43.264;26.940;2022-12-29T12:01:33;99878.34;;;12.96;49.15
40872;BME280;26591;43.264;26.940;2022-12-29T12:04:30;99866.47;;;13.33;48.24
40872;BME280;26591;43.264;26.940;2022-12-29T12:07:03;99869.97;;;13.34;48.49
40872;BME280;26591;43.264;26.940;2022-12-29T12:09:45;99858.00;;;12.70;49.17
40872;BME280;26591;43.264;26.940;2022-12-29T12:12:22;99861.47;;;12.71;49.34
40872;BME280;26591;43.264;26.940;2022-12-29T12:14:54;99857.94;;;12.54;50.09
40872;BME280;26591;43.264;26.940;2022-12-29T12:18:00;99861.38;;;12.89;49.92
40872;BME280;26591;43.264;26.940;2022-12-29T12:20:52;99858.16;;;13.36;48.73
40872;BME280;26591;43.264;26.940;2022-12-29T12:23:27;99853.53;;;13.38;48.67
40872;BME280;26591;43.264;26.940;2022-12-29T12:26:15;99847.03;;;13.33;48.36
40872;BME280;26591;43.264;26.940;2022-12-29T12:29:04;99857.88;;;13.48;48.15
40872;BME280;26591;43.264;26.940;2022-12-29T12:34:16;99851.06;;;13.86;47.69
40872;BME280;26591;43.264;26.940;2022-12-29T12:40:25;99856.56;;;13.43;48.24
40872;BME280;26591;43.264;26.940;2022-12-29T13:19:14;99841.97;;;12.96;49.11
40872;BME280;26591;43.264;26.940;2022-12-29T13:30:12;99854.88;;;14.00;51.22
40872;BME280;26591;43.264;26.940;2022-12-29T13:41:02;99848.50;;;14.26;49.00
40872;BME280;26591;43.264;26.940;2022-12-29T13:43:30;99841.75;;;14.55;47.39
40872;BME280;26591;43.264;26.940;2022-12-29T13:46:09;99847.41;;;15.00;47.21
40872;BME280;26591;43.264;26.940;2022-12-29T13:48:41;99846.28;;;15.26;47.35
40872;BME280;26591;43.264;26.940;2022-12-29T13:51:10;99847.41;;;15.32;47.53
40872;BME280;26591;43.264;26.940;2022-12-29T13:56:30;99841.16;;;15.39;45.82
40872;BME280;26591;43.264;26.940;2022-12-29T13:59:47;99846.09;;;15.51;45.76
40872;BME280;26591;43.264;26.940;2022-12-29T14:02:31;99846.31;;;15.64;45.24
40872;BME280;26591;43.264;26.940;2022-12-29T14:05:27;99841.19;;;15.78;44.98
40872;BME280;26591;43.264;26.940;2022-12-29T14:08:02;99838.63;;;15.84;46.11
40872;BME280;26591;43.264;26.940;2022-12-29T14:10:46;99843.97;;;15.84;45.50
40872;BME280;26591;43.264;26.940;2022-12-29T14:15:39;99850.22;;;15.53;45.52
40872;BME280;26591;43.264;26.940;2022-12-29T14:20:54;99841.97;;;14.45;46.89
40872;BME280;26591;43.264;26.940;2022-12-29T14:26:11;99847.94;;;13.58;48.00
40872;BME280;26591;43.264;26.940;2022-12-29T14:28:45;99852.09;;;13.52;48.94
40872;BME280;26591;43.264;26.940;2022-12-29T14:33:41;99855.09;;;12.98;50.14
40872;BME280;26591;43.264;26.940;2022-12-29T14:36:33;99847.22;;;12.80;50.42
40872;BME280;26591;43.264;26.940;2022-12-29T14:39:00;99850.47;;;12.57;50.60
40872;BME280;26591;43.264;26.940;2022-12-29T14:41:38;99847.72;;;12.41;51.10
40872;BME280;26591;43.264;26.940;2022-12-29T14:44:14;99853.31;;;12.29;51.57
40872;BME280;26591;43.264;26.940;2022-12-29T14:47:05;99847.53;;;12.08;52.87
40872;BME280;26591;43.264;26.940;2022-12-29T14:49:33;99854.16;;;11.85;53.29
40872;BME280;26591;43.264;26.940;2022-12-29T14:52:18;99849.69;;;11.86;52.79
40872;BME280;26591;43.264;26.940;2022-12-29T14:54:52;99857.66;;;11.86;52.87
40872;BME280;26591;43.264;26.940;2022-12-29T15:00:00;99855.31;;;11.65;53.55
40872;BME280;26591;43.264;26.940;2022-12-29T15:02:33;99852.28;;;11.59;53.60
40872;BME280;26591;43.264;26.940;2022-12-29T15:05:00;99854.09;;;11.41;53.84
40872;BME280;26591;43.264;26.940;2022-12-29T15:07:29;99847.97;;;11.40;54.08
40872;BME280;26591;43.264;26.940;2022-12-29T15:10:00;99849.56;;;11.33;54.24
40872;BME280;26591;43.264;26.940;2022-12-29T15:12:45;99849.88;;;11.30;54.18
40872;BME280;26591;43.264;26.940;2022-12-29T15:15:24;99856.75;;;11.23;54.05
40872;BME280;26591;43.264;26.940;2022-12-29T15:17:52;99853.03;;;11.70;58.75